createdAt,value
2022-11-28T00:01:55.441Z,8.10
2022-11-28T00:06:59.179Z,9.07
2022-11-28T00:12:01.672Z,8.60
2022-11-28T00:17:03.878Z,7.07
2022-11-28T00:22:07.702Z,7.30
2022-11-28T00:27:11.318Z,6.55
2022-11-28T00:32:13.741Z,7.63
2022-11-28T00:37:17.511Z,9.98
2022-11-28T00:42:19.702Z,8.15
2022-11-28T00:47:21.949Z,5.65
2022-11-28T00:52:25.644Z,9.00
2022-11-28T00:57:27.898Z,6.38
2022-11-28T01:02:30.221Z,8.55
2022-11-28T01:07:34.902Z,7.47
2022-11-28T01:12:37.131Z,8.55
2022-11-28T01:17:39.689Z,6.90
2022-11-28T01:22:43.410Z,8.57
2022-11-28T01:27:45.585Z,6.65
2022-11-28T01:32:47.994Z,9.50
2022-11-28T01:37:51.796Z,6.68
2022-11-28T01:42:54.301Z,7.38
2022-11-28T01:48:00.671Z,6.15
2022-11-28T01:53:09.119Z,6.40
2022-11-28T01:58:12.727Z,7.07
2022-11-28T02:03:21.833Z,6.07
2022-11-28T02:08:25.803Z,8.55
2022-11-28T02:13:41.119Z,6.50
2022-11-28T02:18:59.134Z,9.85
2022-11-28T02:24:33.889Z,8.13
2022-11-28T02:30:11.927Z,7.10
2022-11-28T02:35:19.934Z,8.60
2022-11-28T02:40:27.680Z,9.57
2022-11-28T02:45:37.220Z,10.75
2022-11-28T02:50:47.739Z,9.43
2022-11-28T02:55:53.001Z,7.22
2022-11-28T03:00:56.248Z,8.93
2022-11-28T03:06:07.983Z,7.95
2022-11-28T03:11:20.113Z,9.68
2022-11-28T03:16:27.478Z,7.18
2022-11-28T03:21:39.136Z,8.68
2022-11-28T03:26:51.226Z,8.35
2022-11-28T03:31:57.465Z,9.68
2022-11-28T03:37:05.558Z,8.00
2022-11-28T03:42:13.035Z,9.88
2022-11-28T03:47:15.790Z,9.15
2022-11-28T03:52:25.541Z,11.43
2022-11-28T03:57:34.048Z,10.00
2022-11-28T04:02:42.325Z,9.80
2022-11-28T04:07:51.624Z,8.52
2022-11-28T04:12:58.893Z,6.72
2022-11-28T04:23:11.673Z,8.77
2022-11-28T04:28:19.071Z,8.43
2022-11-28T04:33:25.109Z,10.10
2022-11-28T04:38:30.571Z,7.05
2022-11-28T04:43:38.233Z,12.20
2022-11-28T04:48:40.802Z,13.52
2022-11-28T04:53:54.745Z,8.57
2022-11-28T04:58:58.176Z,9.95
2022-11-28T05:04:00.742Z,8.82
2022-11-28T05:09:05.332Z,10.57
2022-11-28T05:14:07.767Z,8.57
2022-11-28T05:19:10.085Z,8.52
2022-11-28T05:24:14.110Z,9.02
2022-11-28T05:29:16.617Z,7.55
2022-11-28T05:34:18.952Z,8.23
2022-11-28T05:39:22.769Z,8.75
2022-11-28T05:44:27.057Z,7.13
2022-11-28T05:49:29.742Z,9.30
2022-11-28T05:54:33.804Z,9.50
2022-11-28T05:59:36.320Z,8.75
2022-11-28T06:04:38.597Z,8.95
2022-11-28T06:09:42.792Z,9.95
2022-11-28T06:14:45.364Z,8.25
2022-11-28T06:19:47.809Z,9.70
2022-11-28T06:24:51.632Z,7.88
2022-11-28T06:29:54.061Z,9.95
2022-11-28T06:34:56.517Z,11.02
2022-11-28T06:40:00.653Z,10.82
2022-11-28T06:45:03.717Z,18.15
2022-11-28T06:50:08.030Z,9.05
2022-11-28T06:55:12.180Z,11.00
2022-11-28T07:00:15.758Z,9.68
2022-11-28T07:05:18.224Z,22.55
2022-11-28T07:10:22.394Z,12.75
2022-11-28T07:15:25.084Z,12.90
2022-11-28T07:20:27.394Z,12.48
2022-11-28T07:25:31.179Z,12.65
2022-11-28T07:30:33.468Z,14.65
2022-11-28T07:35:35.854Z,17.02
2022-11-28T07:40:39.864Z,15.57
2022-11-28T07:45:59.927Z,21.15
2022-11-28T07:51:06.936Z,14.05
2022-11-28T07:56:13.090Z,10.77
2022-11-28T08:01:17.129Z,13.93
2022-11-28T08:06:21.799Z,13.15
2022-11-28T08:11:26.401Z,13.15
2022-11-28T08:16:30.083Z,12.23
2022-11-28T08:21:33.755Z,16.95
2022-11-28T08:26:38.125Z,12.63
2022-11-28T08:31:40.729Z,15.18
2022-11-28T08:36:43.159Z,14.25
2022-11-28T08:41:47.018Z,15.32
2022-11-28T08:46:49.343Z,17.52
2022-11-28T08:51:51.652Z,13.95
2022-11-28T08:56:55.525Z,15.32
2022-11-28T09:01:58.089Z,14.20
2022-11-28T09:07:00.528Z,14.88
2022-11-28T09:12:04.634Z,14.63
2022-11-28T09:17:07.106Z,14.43
2022-11-28T09:22:09.700Z,11.70
2022-11-28T09:27:13.634Z,15.65
2022-11-28T09:32:16.090Z,12.98
2022-11-28T09:37:18.529Z,48.25
2022-11-28T09:42:30.579Z,14.93
2022-11-28T09:47:35.995Z,16.80
2022-11-28T09:52:46.208Z,15.52
2022-11-28T09:57:51.875Z,15.57
2022-11-28T10:03:14.961Z,15.73
2022-11-28T10:08:25.379Z,15.43
2022-11-28T10:14:07.337Z,14.43
2022-11-28T10:19:25.745Z,15.35
2022-11-28T10:24:41.317Z,15.77
2022-11-28T10:29:52.405Z,15.30
2022-11-28T10:35:00.483Z,12.48
2022-11-28T10:40:17.229Z,17.42
2022-11-28T10:45:28.412Z,15.95
2022-11-28T10:50:38.317Z,14.23
2022-11-28T10:55:48.805Z,13.13
2022-11-28T11:00:56.441Z,15.45
2022-11-28T11:05:59.750Z,13.63
2022-11-28T11:11:05.852Z,15.43
2022-11-28T11:16:11.881Z,13.35
2022-11-28T11:21:17.441Z,13.73
2022-11-28T11:26:26.174Z,12.20
2022-11-28T11:31:32.487Z,15.90
2022-11-28T11:36:36.631Z,13.40
2022-11-28T11:41:40.652Z,13.73
2022-11-28T11:46:53.552Z,13.05
2022-11-28T11:51:57.389Z,13.20
2022-11-28T11:57:30.827Z,12.32
2022-11-28T12:02:32.450Z,13.65
2022-11-28T12:07:46.143Z,12.82
2022-11-28T12:12:48.499Z,13.05
2022-11-28T12:18:05.427Z,11.45
2022-11-28T12:23:23.878Z,11.05
2022-11-28T12:28:39.786Z,15.85
2022-11-28T12:33:55.547Z,10.98
2022-11-28T12:39:14.509Z,14.38
2022-11-28T12:44:26.519Z,10.93
2022-11-28T12:49:39.126Z,14.38
2022-11-28T12:55:06.826Z,15.18
2022-11-28T13:00:14.690Z,14.43
2022-11-28T13:05:34.711Z,16.00
2022-11-28T13:10:43.883Z,13.73
2022-11-28T13:15:59.895Z,14.40
2022-11-28T13:21:15.165Z,12.45
2022-11-28T13:26:28.556Z,14.27
2022-11-28T13:31:38.308Z,10.43
2022-11-28T13:42:59.591Z,15.77
2022-11-28T13:47:49.261Z,12.75
2022-11-28T13:52:59.497Z,16.10
2022-11-28T13:58:16.039Z,16.63
2022-11-28T14:03:21.179Z,15.43
2022-11-28T14:08:32.796Z,19.67
2022-11-28T14:13:50.455Z,17.75
2022-11-28T14:19:16.860Z,17.17
2022-11-28T14:24:33.055Z,13.67
2022-11-28T14:29:40.190Z,18.45
2022-11-28T14:34:44.854Z,16.67
2022-11-28T14:39:49.800Z,16.98
2022-11-28T14:44:53.810Z,19.30
2022-11-28T14:50:33.366Z,20.52
2022-11-28T14:55:37.183Z,20.55
2022-11-28T15:00:50.778Z,19.30
2022-11-28T15:05:56.253Z,21.65
2022-11-28T15:11:12.015Z,20.20
2022-11-28T15:16:17.359Z,21.77
2022-11-28T15:21:20.954Z,20.10
2022-11-28T15:26:29.936Z,18.88
2022-11-28T15:31:33.512Z,17.63
2022-11-28T15:36:37.193Z,17.30
2022-11-28T15:41:41.000Z,15.15
2022-11-28T15:46:43.884Z,15.55
2022-11-28T15:51:53.719Z,15.43
2022-11-28T15:57:01.186Z,14.27
2022-11-28T16:02:13.037Z,13.95
2022-11-28T16:07:16.726Z,17.88
2022-11-28T16:12:20.698Z,17.25
2022-11-28T16:17:27.015Z,15.50
2022-11-28T16:22:33.991Z,17.23
2022-11-28T16:27:40.437Z,17.85
2022-11-28T16:32:54.335Z,24.30
2022-11-28T16:38:14.454Z,16.83
2022-11-28T16:43:24.428Z,16.17
2022-11-28T16:48:29.185Z,15.65
2022-11-28T16:53:44.647Z,13.68
2022-11-28T16:58:48.392Z,16.10
2022-11-28T17:03:52.953Z,14.25
2022-11-28T17:08:55.347Z,17.10
2022-11-28T17:14:02.318Z,17.02
2022-11-28T17:19:05.302Z,17.95
2022-11-28T17:24:16.238Z,16.67
2022-11-28T17:29:22.304Z,18.33
2022-11-28T17:34:26.263Z,20.67
2022-11-28T17:39:29.008Z,18.80
2022-11-28T17:44:35.282Z,20.30
2022-11-28T17:49:41.792Z,21.60
2022-11-28T17:54:47.283Z,21.15
2022-11-28T17:59:51.293Z,25.05
2022-11-28T18:04:53.729Z,26.05
2022-11-28T18:09:56.030Z,20.00
2022-11-28T18:14:59.816Z,17.30
2022-11-28T18:20:02.394Z,19.42
2022-11-28T18:25:05.272Z,21.42
2022-11-28T18:30:10.317Z,19.25
2022-11-28T18:35:13.124Z,23.02
2022-11-28T18:40:15.516Z,23.95
2022-11-28T18:45:20.250Z,21.27
2022-11-28T18:50:22.600Z,24.27
2022-11-28T18:55:25.013Z,22.42
2022-11-28T19:00:28.828Z,21.13
2022-11-28T19:05:36.406Z,18.48
2022-11-28T19:10:41.515Z,22.08
2022-11-28T19:15:45.318Z,22.83
2022-11-28T19:20:47.808Z,23.60
2022-11-28T19:25:50.187Z,21.60
2022-11-28T19:30:54.169Z,20.50
2022-11-28T19:36:01.864Z,22.60
2022-11-28T19:41:06.785Z,22.58
2022-11-28T19:46:11.390Z,23.13
2022-11-28T19:51:14.780Z,20.23
2022-11-28T19:56:18.910Z,20.15
2022-11-28T20:01:23.989Z,19.67
2022-11-28T20:06:28.486Z,20.23
2022-11-28T20:11:33.042Z,20.27
2022-11-28T20:16:37.568Z,19.58
2022-11-28T20:21:39.933Z,20.27
2022-11-28T20:26:43.693Z,20.58
2022-11-28T20:31:48.357Z,24.50
2022-11-28T20:36:54.149Z,20.80
2022-11-28T20:41:56.520Z,21.65
2022-11-28T20:47:00.295Z,21.50
2022-11-28T20:52:02.708Z,19.98
2022-11-28T20:57:20.843Z,22.83
2022-11-28T21:02:25.816Z,20.88
2022-11-28T21:07:28.093Z,18.40
2022-11-28T21:12:30.532Z,22.23
2022-11-28T21:17:34.297Z,21.33
2022-11-28T21:22:36.552Z,23.23
2022-11-28T21:27:38.802Z,20.70
2022-11-28T21:32:43.196Z,23.13
2022-11-28T21:37:45.457Z,18.05
2022-11-28T21:42:48.680Z,19.88
2022-11-28T21:47:52.773Z,19.23
2022-11-28T21:52:55.165Z,20.08
2022-11-28T21:57:57.449Z,19.05
2022-11-28T22:03:05.808Z,20.17
2022-11-28T22:08:10.788Z,21.73
2022-11-28T22:13:13.166Z,24.70
2022-11-28T22:18:16.933Z,20.35
2022-11-28T22:23:19.550Z,21.52
2022-11-28T22:28:22.019Z,22.90
2022-11-28T22:33:26.044Z,22.67
2022-11-28T22:38:28.402Z,21.52
2022-11-28T22:43:30.704Z,25.02
2022-11-28T22:48:35.850Z,26.00
2022-11-28T22:53:38.656Z,21.55
2022-11-28T22:58:43.202Z,29.27
2022-11-28T23:03:47.678Z,25.92
2022-11-28T23:08:53.261Z,27.98
2022-11-28T23:13:56.488Z,38.33
2022-11-28T23:19:01.909Z,40.92
2022-11-28T23:24:05.075Z,37.03
2022-11-28T23:29:07.450Z,44.47
2022-11-28T23:34:11.520Z,35.70
2022-11-28T23:39:15.236Z,33.90
2022-11-28T23:44:19.560Z,40.35
2022-11-28T23:49:23.255Z,34.25
2022-11-28T23:54:25.477Z,33.03
2022-11-28T23:59:27.947Z,57.25
